createdAt,value
2018-03-27T00:53:25.873Z,24.33
2018-03-27T01:13:58.502Z,18.90
2018-03-27T01:22:53.545Z,14.27
2018-03-27T01:25:26.538Z,14.02
2018-03-27T01:28:24.651Z,12.43
2018-03-27T01:48:53.094Z,9.10
2018-03-27T01:51:22.663Z,8.50
2018-03-27T01:53:52.406Z,8.63
2018-03-27T01:56:20.862Z,8.75
2018-03-27T02:01:22.396Z,7.57
2018-03-27T02:03:55.778Z,8.65
2018-03-27T02:09:16.788Z,9.02
2018-03-27T02:11:50.036Z,9.27
2018-03-27T02:14:23.515Z,9.10
2018-03-27T02:16:57.438Z,9.57
2018-03-27T02:19:32.589Z,9.60
2018-03-27T02:22:00.091Z,9.93
2018-03-27T02:24:30.152Z,9.70
2018-03-27T02:26:58.320Z,10.07
2018-03-27T02:29:27.239Z,9.60
2018-03-27T02:31:54.797Z,10.05
2018-03-27T02:34:24.582Z,9.98
2018-03-27T02:36:53.536Z,9.70
2018-03-27T02:39:22.124Z,9.70
2018-03-27T02:41:51.287Z,9.77
2018-03-27T02:44:22.183Z,8.88
2018-03-27T02:46:52.169Z,9.10
2018-03-27T02:49:21.046Z,9.27
2018-03-27T02:51:51.839Z,9.30
2018-03-27T02:54:20.388Z,8.88
2018-03-27T02:56:53.873Z,8.55
2018-03-27T03:02:24.026Z,9.40
2018-03-27T03:07:49.720Z,9.18
2018-03-27T03:10:19.114Z,8.23
2018-03-27T03:12:46.753Z,9.32
2018-03-27T03:15:15.256Z,10.10
2018-03-27T03:17:43.984Z,9.05
2018-03-27T03:20:11.673Z,10.05
2018-03-27T03:22:40.731Z,10.80
2018-03-27T03:25:12.045Z,11.00
2018-03-27T03:27:56.346Z,11.27
2018-03-27T03:30:43.425Z,10.48
2018-03-27T03:33:11.201Z,10.52
2018-03-27T03:35:41.133Z,11.43
2018-03-27T03:41:06.697Z,12.15
2018-03-27T03:49:24.419Z,11.98
2018-03-27T03:51:53.437Z,12.68
2018-03-27T03:54:23.726Z,13.37
2018-03-27T03:56:51.294Z,13.62
2018-03-27T03:59:19.764Z,13.55
2018-03-27T04:01:50.645Z,13.10
2018-03-27T04:04:18.620Z,12.70
2018-03-27T04:06:47.052Z,12.27
2018-03-27T04:09:14.645Z,13.32
2018-03-27T04:11:43.117Z,12.75
2018-03-27T04:17:09.618Z,13.10
2018-03-27T04:19:56.490Z,12.67
2018-03-27T04:28:24.480Z,13.68
2018-03-27T04:30:52.139Z,13.32
2018-03-27T04:33:19.685Z,13.80
2018-03-27T04:35:47.354Z,14.10
2018-03-27T04:44:17.936Z,14.65
2018-03-27T04:46:46.277Z,14.80
2018-03-27T04:49:24.404Z,15.88
2018-03-27T04:52:00.127Z,14.52
2018-03-27T05:03:24.139Z,17.98
2018-03-27T05:05:54.811Z,16.77
2018-03-27T05:24:25.089Z,14.13
2018-03-27T05:44:58.152Z,14.18
2018-03-27T05:47:25.796Z,14.40
2018-03-27T05:56:19.456Z,15.63
2018-03-27T05:58:46.956Z,14.00
2018-03-27T06:01:14.436Z,14.37
2018-03-27T06:03:54.146Z,13.98
2018-03-27T06:06:21.634Z,15.63
2018-03-27T06:08:49.137Z,14.98
2018-03-27T06:11:16.659Z,15.27
2018-03-27T06:13:44.139Z,14.85
2018-03-27T06:16:11.666Z,14.77
2018-03-27T06:18:39.917Z,16.10
2018-03-27T06:21:07.446Z,16.08
2018-03-27T06:23:34.938Z,15.23
2018-03-27T06:26:05.926Z,15.60
2018-03-27T06:28:33.472Z,15.27
2018-03-27T06:31:00.961Z,14.83
2018-03-27T06:33:29.439Z,15.10
2018-03-27T06:35:59.177Z,15.38
2018-03-27T06:38:27.476Z,15.40
2018-03-27T06:40:55.830Z,15.57
2018-03-27T06:43:23.401Z,16.27
2018-03-27T06:45:50.970Z,15.38
2018-03-27T06:48:18.636Z,15.68
2018-03-27T06:50:46.210Z,14.52
2018-03-27T06:53:34.185Z,14.52
2018-03-27T06:56:01.692Z,14.35
2018-03-27T06:58:29.949Z,12.85
2018-03-27T07:00:57.664Z,13.77
2018-03-27T07:03:26.138Z,12.20
2018-03-27T07:05:53.858Z,12.77
2018-03-27T07:08:24.739Z,12.77
2018-03-27T07:10:53.166Z,12.65
2018-03-27T07:13:20.687Z,12.13
2018-03-27T07:15:48.185Z,11.27
2018-03-27T07:18:15.677Z,12.50
2018-03-27T07:20:45.435Z,12.93
2018-03-27T07:23:13.179Z,13.05
2018-03-27T07:25:40.666Z,13.18
2018-03-27T07:28:08.161Z,13.60
2018-03-27T07:30:35.692Z,12.98
2018-03-27T07:33:03.155Z,12.98
2018-03-27T07:35:31.475Z,13.43
2018-03-27T07:37:59.000Z,15.67
2018-03-27T07:40:27.254Z,14.18
2018-03-27T07:42:54.704Z,13.48
2018-03-27T07:45:43.097Z,12.95
2018-03-27T07:48:10.607Z,12.87
2018-03-27T07:50:40.056Z,12.98
2018-03-27T07:53:07.578Z,14.40
2018-03-27T07:55:35.836Z,15.75
2018-03-27T07:58:03.366Z,17.60
2018-03-27T08:00:30.852Z,16.75
2018-03-27T08:02:58.355Z,18.30
2018-03-27T08:05:25.836Z,20.98
2018-03-27T08:07:54.103Z,21.30
2018-03-27T08:10:22.404Z,22.35
2018-03-27T08:12:50.778Z,20.90
2018-03-27T08:15:19.190Z,20.63
2018-03-27T08:17:54.320Z,21.23
2018-03-27T08:20:26.268Z,21.12
2018-03-27T08:22:55.015Z,22.90
2018-03-27T08:25:22.698Z,23.40
2018-03-27T08:27:55.675Z,23.48
2018-03-27T08:30:25.403Z,23.38
2018-03-27T08:33:00.223Z,24.65
2018-03-27T08:35:27.939Z,25.15
2018-03-27T08:37:55.905Z,24.02
2018-03-27T08:43:28.473Z,25.62
2018-03-27T08:45:57.412Z,24.73
2018-03-27T08:48:25.083Z,24.70
2018-03-27T08:50:57.301Z,25.27
2018-03-27T08:53:26.815Z,24.90
2018-03-27T08:55:55.864Z,24.63
2018-03-27T08:58:25.009Z,24.57
2018-03-27T09:00:54.589Z,25.23
2018-03-27T09:03:25.747Z,23.50
2018-03-27T09:05:53.279Z,23.58
2018-03-27T09:08:24.619Z,23.67
2018-03-27T09:10:52.208Z,23.30
2018-03-27T09:13:20.428Z,25.70
2018-03-27T09:15:47.934Z,25.20
2018-03-27T09:18:26.813Z,23.42
2018-03-27T09:20:54.648Z,24.15
2018-03-27T09:23:22.214Z,23.55
2018-03-27T09:25:49.675Z,21.65
2018-03-27T09:28:19.085Z,21.80
2018-03-27T09:30:46.561Z,20.30
2018-03-27T09:33:27.416Z,20.55
2018-03-27T09:35:54.892Z,20.40
2018-03-27T09:38:22.368Z,20.60
2018-03-27T09:40:49.828Z,20.33
2018-03-27T09:43:17.313Z,21.75
2018-03-27T09:45:44.767Z,22.17
2018-03-27T09:48:12.246Z,20.37
2018-03-27T09:50:39.744Z,21.30
2018-03-27T09:53:13.692Z,21.05
2018-03-27T09:55:41.945Z,21.05
2018-03-27T09:58:09.486Z,18.85
2018-03-27T10:00:42.748Z,18.52
2018-03-27T10:03:11.017Z,17.23
2018-03-27T10:05:38.551Z,16.75
2018-03-27T10:08:06.052Z,17.02
2018-03-27T10:13:31.661Z,16.33
2018-03-27T10:15:59.137Z,16.37
2018-03-27T10:18:31.192Z,15.05
2018-03-27T10:20:59.410Z,16.27
2018-03-27T10:23:26.892Z,15.20
2018-03-27T10:25:54.405Z,15.40
2018-03-27T10:28:25.892Z,14.25
2018-03-27T10:30:53.397Z,16.35
2018-03-27T10:33:24.735Z,15.75
2018-03-27T10:35:52.216Z,16.42
2018-03-27T10:38:19.710Z,16.45
2018-03-27T10:40:47.288Z,13.45
2018-03-27T10:43:14.824Z,11.75
2018-03-27T10:45:42.329Z,14.15
2018-03-27T10:48:09.807Z,12.50
2018-03-27T10:50:45.201Z,12.68
2018-03-27T10:53:24.092Z,12.27
2018-03-27T10:55:56.143Z,12.93
2018-03-27T10:58:27.832Z,14.27
2018-03-27T11:00:55.755Z,14.60
2018-03-27T11:03:23.372Z,14.48
2018-03-27T11:05:50.959Z,14.27
2018-03-27T11:08:18.577Z,13.80
2018-03-27T11:10:46.852Z,12.60
2018-03-27T11:13:15.142Z,12.90
2018-03-27T11:15:46.291Z,11.98
2018-03-27T11:18:15.149Z,11.48
2018-03-27T11:20:47.151Z,10.98
2018-03-27T11:23:14.677Z,11.40
2018-03-27T11:25:47.474Z,11.05
2018-03-27T11:28:15.048Z,11.27
2018-03-27T11:30:42.555Z,11.35
2018-03-27T11:33:10.205Z,10.88
2018-03-27T11:35:37.714Z,10.80
2018-03-27T11:38:14.788Z,10.97
2018-03-27T11:40:43.291Z,11.02
2018-03-27T11:43:10.760Z,9.98
2018-03-27T11:45:38.219Z,10.38
2018-03-27T11:51:09.450Z,11.20
2018-03-27T11:53:53.824Z,9.63
2018-03-27T11:56:24.620Z,9.43
2018-03-27T11:59:12.760Z,9.95
2018-03-27T12:02:05.894Z,9.90
2018-03-27T12:04:56.267Z,9.47
2018-03-27T12:13:25.351Z,10.57
2018-03-27T12:28:02.805Z,11.32
2018-03-27T12:30:41.453Z,12.00
2018-03-27T12:33:24.576Z,12.18
2018-03-27T12:35:55.317Z,12.37
2018-03-27T12:38:24.707Z,11.85
2018-03-27T12:46:41.705Z,12.23
2018-03-27T12:49:29.445Z,12.88
2018-03-27T12:51:58.142Z,12.43
2018-03-27T12:54:25.900Z,12.60
2018-03-27T12:56:54.282Z,15.15
2018-03-27T12:59:21.863Z,13.67
2018-03-27T13:01:49.376Z,12.60
2018-03-27T13:04:18.005Z,13.18
2018-03-27T13:06:55.549Z,12.75
2018-03-27T13:45:23.190Z,11.77
2018-03-27T13:51:09.022Z,10.82
2018-03-27T13:53:53.906Z,11.40
2018-03-27T13:56:32.277Z,11.55
2018-03-27T14:11:33.212Z,11.60
2018-03-27T14:14:21.365Z,11.80
2018-03-27T14:17:01.622Z,11.43
2018-03-27T14:19:32.258Z,11.57
2018-03-27T14:21:59.934Z,11.55
2018-03-27T14:24:38.505Z,11.33
2018-03-27T14:27:29.222Z,11.60
2018-03-27T14:29:59.721Z,11.18
2018-03-27T14:35:26.367Z,11.85
2018-03-27T14:37:59.187Z,11.40
2018-03-27T14:46:36.858Z,12.80
2018-03-27T14:51:53.620Z,13.30
2018-03-27T14:54:24.371Z,12.53
2018-03-27T14:56:54.663Z,12.50
2018-03-27T14:59:24.634Z,11.68
2018-03-27T15:02:31.713Z,12.43
2018-03-27T15:04:59.319Z,13.65
2018-03-27T15:07:27.155Z,13.40
2018-03-27T15:09:55.554Z,12.80
2018-03-27T15:12:23.721Z,13.10
2018-03-27T15:14:52.038Z,13.82
2018-03-27T15:17:25.577Z,13.57
2018-03-27T15:19:59.459Z,13.93
2018-03-27T15:22:26.973Z,14.63
2018-03-27T15:24:54.581Z,16.77
2018-03-27T15:27:23.057Z,16.20
2018-03-27T15:29:53.388Z,16.20
2018-03-27T15:35:23.823Z,16.87
2018-03-27T15:37:56.184Z,16.27
2018-03-27T15:53:23.691Z,17.15
2018-03-27T15:55:53.064Z,17.37
2018-03-27T15:58:21.705Z,16.05
2018-03-27T16:00:55.384Z,17.25
2018-03-27T16:03:25.335Z,18.37
2018-03-27T16:05:52.840Z,17.73
2018-03-27T16:08:20.454Z,18.52
2018-03-27T16:10:47.977Z,18.87
2018-03-27T16:13:27.138Z,18.85
2018-03-27T16:18:54.065Z,19.25
2018-03-27T16:21:26.023Z,18.58
2018-03-27T16:23:57.842Z,19.17
2018-03-27T16:29:24.707Z,18.73
2018-03-27T16:34:54.707Z,18.10
2018-03-27T16:40:21.324Z,17.73
2018-03-27T16:42:54.849Z,18.67
2018-03-27T16:50:55.677Z,18.10
2018-03-27T16:53:23.187Z,17.50
2018-03-27T16:55:55.746Z,17.40
2018-03-27T17:03:56.104Z,16.67
2018-03-27T17:06:24.594Z,16.08
2018-03-27T17:09:16.093Z,16.20
2018-03-27T17:11:55.981Z,17.23
2018-03-27T17:14:24.643Z,16.23
2018-03-27T17:17:11.793Z,16.62
2018-03-27T17:19:46.278Z,17.00
2018-03-27T17:22:58.926Z,15.57
2018-03-27T17:34:24.388Z,15.80
2018-03-27T17:36:55.795Z,15.07
2018-03-27T17:51:53.745Z,15.63
2018-03-27T17:54:26.190Z,15.98
2018-03-27T17:56:55.065Z,16.45
2018-03-27T18:19:27.078Z,17.12
2018-03-27T18:21:58.183Z,17.20
2018-03-27T18:24:25.903Z,17.70
2018-03-27T18:26:55.181Z,17.08
2018-03-27T18:29:26.609Z,17.77
2018-03-27T18:31:54.971Z,18.37
2018-03-27T18:34:22.636Z,17.73
2018-03-27T18:37:01.548Z,17.70
2018-03-27T18:39:31.716Z,17.77
2018-03-27T18:41:59.246Z,17.42
2018-03-27T18:44:28.142Z,17.75
2018-03-27T18:46:55.831Z,18.73
2018-03-27T18:49:24.153Z,18.65
2018-03-27T18:51:54.209Z,18.40
2018-03-27T18:54:24.942Z,18.67
2018-03-27T18:56:58.570Z,18.40
2018-03-27T18:59:26.132Z,19.27
2018-03-27T19:01:53.760Z,18.98
2018-03-27T19:04:33.729Z,17.95
2018-03-27T19:07:01.397Z,19.75
2018-03-27T19:09:30.617Z,19.77
2018-03-27T19:11:59.959Z,20.70
2018-03-27T19:14:28.310Z,19.90
2018-03-27T19:16:56.936Z,19.98
2018-03-27T19:19:25.744Z,21.37
2018-03-27T19:22:00.681Z,20.62
2018-03-27T19:27:25.198Z,20.83
2018-03-27T19:32:57.858Z,22.08
2018-03-27T19:35:26.338Z,20.30
2018-03-27T19:38:02.339Z,22.13
2018-03-27T19:43:26.279Z,21.43
2018-03-27T19:45:56.007Z,22.20
2018-03-27T19:48:24.600Z,21.60
2018-03-27T19:50:59.489Z,22.87
2018-03-27T19:53:30.258Z,23.42
2018-03-27T19:55:57.876Z,23.20
2018-03-27T19:58:28.559Z,23.50
2018-03-27T20:00:56.910Z,23.10
2018-03-27T20:03:25.541Z,23.65
2018-03-27T20:05:57.657Z,24.15
2018-03-27T20:08:26.071Z,25.30
2018-03-27T20:11:00.192Z,24.45
2018-03-27T20:13:27.944Z,22.87
2018-03-27T20:15:56.241Z,21.80
2018-03-27T20:18:25.151Z,24.58
2018-03-27T20:21:01.926Z,23.27
2018-03-27T20:23:29.439Z,24.63
2018-03-27T20:26:02.721Z,25.23
2018-03-27T20:28:34.446Z,23.62
2018-03-27T20:31:01.937Z,25.00
2018-03-27T20:33:29.457Z,24.67
2018-03-27T20:36:12.397Z,25.13
2018-03-27T20:38:39.904Z,24.90
2018-03-27T20:41:07.432Z,25.93
2018-03-27T20:43:35.072Z,25.52
2018-03-27T20:46:08.200Z,24.75
2018-03-27T20:48:36.812Z,25.67
2018-03-27T20:51:06.308Z,25.80
2018-03-27T20:53:33.824Z,24.87
2018-03-27T20:56:01.321Z,25.40
2018-03-27T20:58:28.792Z,25.40
2018-03-27T21:00:56.290Z,27.48
2018-03-27T21:03:25.164Z,26.07
2018-03-27T21:05:53.447Z,26.77
2018-03-27T21:08:21.006Z,25.08
2018-03-27T21:10:59.215Z,24.55
2018-03-27T21:13:26.742Z,25.83
2018-03-27T21:16:02.704Z,25.23
2018-03-27T21:18:30.925Z,25.55
2018-03-27T21:20:59.053Z,27.42
2018-03-27T21:23:31.191Z,27.27
2018-03-27T21:25:58.814Z,26.73
2018-03-27T21:28:27.811Z,26.10
2018-03-27T21:30:55.284Z,26.50
2018-03-27T21:33:27.545Z,26.90
2018-03-27T21:36:01.571Z,26.42
2018-03-27T21:38:30.137Z,26.95
2018-03-27T21:41:03.173Z,26.80
2018-03-27T21:43:30.660Z,27.15
2018-03-27T21:45:58.153Z,27.20
2018-03-27T21:48:25.644Z,26.77
2018-03-27T21:50:53.507Z,26.92
2018-03-27T21:53:27.954Z,26.42
2018-03-27T21:55:55.442Z,27.13
2018-03-27T21:58:27.122Z,27.35
2018-03-27T22:00:54.616Z,27.50
2018-03-27T22:03:22.100Z,28.45
2018-03-27T22:05:50.354Z,28.35
2018-03-27T22:08:22.014Z,28.90
2018-03-27T22:10:49.920Z,30.10
2018-03-27T22:13:29.276Z,28.77
2018-03-27T22:15:58.776Z,30.17
2018-03-27T22:18:26.258Z,29.67
2018-03-27T22:20:53.811Z,30.62
2018-03-27T22:23:21.251Z,29.92
2018-03-27T22:26:02.321Z,30.48
2018-03-27T22:28:29.812Z,29.52
2018-03-27T22:30:58.945Z,31.25
2018-03-27T22:33:28.360Z,30.60
2018-03-27T22:35:55.869Z,30.50
2018-03-27T22:38:24.116Z,31.40
2018-03-27T22:40:51.628Z,31.25
2018-03-27T22:43:19.870Z,31.83
2018-03-27T22:45:47.359Z,31.58
2018-03-27T22:48:15.099Z,31.25
2018-03-27T22:50:42.871Z,30.08
2018-03-27T22:53:10.443Z,31.05
2018-03-27T22:55:38.689Z,32.50
2018-03-27T22:58:07.029Z,31.42
2018-03-27T23:00:37.696Z,29.48
2018-03-27T23:03:05.231Z,32.10
2018-03-27T23:05:32.747Z,30.70
2018-03-27T23:08:00.234Z,30.15
2018-03-27T23:10:28.501Z,31.23
2018-03-27T23:12:58.560Z,30.15
2018-03-27T23:15:28.230Z,30.73
2018-03-27T23:17:55.730Z,30.92
2018-03-27T23:20:23.994Z,29.58
2018-03-27T23:22:51.496Z,31.52
2018-03-27T23:25:28.074Z,30.87
2018-03-27T23:27:56.339Z,30.00
2018-03-27T23:30:23.838Z,31.10
2018-03-27T23:32:59.426Z,30.60
2018-03-27T23:35:27.073Z,30.30
2018-03-27T23:37:55.501Z,28.80
2018-03-27T23:40:23.428Z,29.12
2018-03-27T23:42:51.644Z,30.55
2018-03-27T23:45:19.280Z,30.67
2018-03-27T23:47:46.764Z,30.10
2018-03-27T23:50:14.233Z,30.55
2018-03-27T23:52:43.669Z,30.37
2018-03-27T23:55:11.313Z,29.00
